createdAt,value
2022-08-03T00:01:27.668Z,16.40
2022-08-03T00:03:54.899Z,16.03
2022-08-03T00:06:21.830Z,16.17
2022-08-03T00:08:49.010Z,15.87
2022-08-03T00:11:16.109Z,14.80
2022-08-03T00:13:43.258Z,14.93
2022-08-03T00:16:10.880Z,13.83
2022-08-03T00:18:38.020Z,14.37
2022-08-03T00:21:05.646Z,13.70
2022-08-03T00:23:51.804Z,14.67
2022-08-03T00:26:20.725Z,14.17
2022-08-03T00:28:48.445Z,13.77
2022-08-03T00:31:15.608Z,13.93
2022-08-03T00:33:58.761Z,13.20
2022-08-03T00:36:27.819Z,13.90
2022-08-03T00:38:55.413Z,13.67
2022-08-03T00:41:22.407Z,14.10
2022-08-03T00:43:50.285Z,14.67
2022-08-03T00:46:21.337Z,16.47
2022-08-03T00:48:50.426Z,16.10
2022-08-03T00:51:19.065Z,15.00
2022-08-03T00:53:46.142Z,16.03
2022-08-03T00:56:15.220Z,14.50
2022-08-03T00:58:45.172Z,14.57
2022-08-03T01:01:12.858Z,14.00
2022-08-03T01:03:40.474Z,15.10
2022-08-03T01:06:30.494Z,13.47
2022-08-03T01:09:12.534Z,14.43
2022-08-03T01:12:35.745Z,14.47
2022-08-03T01:15:44.882Z,14.13
2022-08-03T01:18:24.022Z,13.67
2022-08-03T01:20:55.851Z,14.00
2022-08-03T01:23:55.244Z,14.57
2022-08-03T01:26:54.495Z,14.53
2022-08-03T01:29:50.541Z,14.57
2022-08-03T01:32:58.936Z,13.23
2022-08-03T01:35:16.384Z,13.90
2022-08-03T01:37:52.969Z,13.63
2022-08-03T01:40:22.139Z,13.70
2022-08-03T01:42:51.642Z,14.50
2022-08-03T01:45:20.688Z,14.37
2022-08-03T01:47:49.801Z,13.50
2022-08-03T01:50:21.860Z,13.97
2022-08-03T01:52:50.124Z,13.77
2022-08-03T01:55:19.406Z,13.47
2022-08-03T01:58:05.937Z,13.73
2022-08-03T02:00:36.586Z,13.17
2022-08-03T02:03:06.824Z,13.87
2022-08-03T02:05:34.626Z,13.63
2022-08-03T02:08:04.840Z,13.73
2022-08-03T02:10:34.742Z,13.13
2022-08-03T02:13:05.662Z,12.53
2022-08-03T02:15:33.795Z,12.80
2022-08-03T02:18:02.454Z,12.80
2022-08-03T02:20:33.092Z,13.50
2022-08-03T02:23:00.203Z,13.13
2022-08-03T02:25:27.914Z,13.50
2022-08-03T02:28:12.229Z,12.83
2022-08-03T02:30:42.724Z,12.63
2022-08-03T02:33:17.228Z,13.00
2022-08-03T02:35:45.225Z,12.23
2022-08-03T02:38:13.390Z,12.50
2022-08-03T02:40:43.299Z,12.77
2022-08-03T02:43:14.935Z,12.97
2022-08-03T02:45:45.871Z,13.13
2022-08-03T02:48:17.321Z,12.83
2022-08-03T02:50:45.981Z,12.97
2022-08-03T02:53:15.822Z,11.77
2022-08-03T02:55:45.808Z,12.77
2022-08-03T02:58:14.555Z,12.33
2022-08-03T03:00:44.024Z,12.80
2022-08-03T03:03:11.869Z,12.23
2022-08-03T03:05:54.490Z,12.43
2022-08-03T03:08:27.449Z,12.03
2022-08-03T03:10:59.677Z,11.20
2022-08-03T03:13:30.175Z,11.13
2022-08-03T03:16:01.663Z,11.53
2022-08-03T03:18:30.969Z,11.27
2022-08-03T03:21:00.755Z,12.40
2022-08-03T03:23:29.098Z,11.97
2022-08-03T03:25:58.442Z,12.10
2022-08-03T03:28:25.903Z,11.37
2022-08-03T03:30:53.520Z,11.17
2022-08-03T03:33:22.192Z,11.17
2022-08-03T03:35:49.768Z,10.83
2022-08-03T03:38:16.764Z,11.43
2022-08-03T03:40:43.908Z,11.17
2022-08-03T03:43:12.300Z,11.27
2022-08-03T03:45:43.001Z,11.93
2022-08-03T03:48:10.539Z,11.47
2022-08-03T03:50:40.946Z,12.77
2022-08-03T03:53:12.489Z,11.07
2022-08-03T03:55:57.826Z,11.90
2022-08-03T03:58:27.154Z,12.00
2022-08-03T04:00:54.340Z,11.47
2022-08-03T04:03:21.348Z,11.47
2022-08-03T04:06:07.357Z,11.23
2022-08-03T04:08:53.453Z,11.40
2022-08-03T04:11:30.249Z,11.63
2022-08-03T04:14:06.533Z,13.07
2022-08-03T04:16:41.876Z,13.77
2022-08-03T04:19:38.565Z,12.53
2022-08-03T04:22:14.252Z,14.30
2022-08-03T04:24:47.534Z,14.77
2022-08-03T04:27:17.466Z,14.83
2022-08-03T04:29:48.669Z,14.87
2022-08-03T04:32:17.022Z,14.77
2022-08-03T04:34:44.451Z,15.27
2022-08-03T04:37:18.843Z,16.47
2022-08-03T04:39:49.611Z,15.53
2022-08-03T04:42:21.065Z,16.20
2022-08-03T04:44:48.850Z,15.97
2022-08-03T04:47:16.448Z,15.43
2022-08-03T04:49:44.327Z,16.17
2022-08-03T04:52:11.775Z,15.27
2022-08-03T04:54:42.972Z,15.33
2022-08-03T04:57:22.292Z,14.20
2022-08-03T04:59:58.275Z,14.50
2022-08-03T05:02:29.217Z,15.20
2022-08-03T05:04:56.791Z,15.37
2022-08-03T05:07:25.023Z,16.67
2022-08-03T05:09:57.573Z,16.43
2022-08-03T05:12:32.683Z,16.97
2022-08-03T05:15:00.814Z,17.27
2022-08-03T05:17:28.568Z,16.87
2022-08-03T05:19:56.105Z,18.53
2022-08-03T05:22:23.707Z,18.37
2022-08-03T05:24:50.737Z,19.77
2022-08-03T05:27:19.423Z,19.47
2022-08-03T05:29:50.539Z,22.33
2022-08-03T05:32:18.471Z,19.27
2022-08-03T05:34:45.625Z,19.23
2022-08-03T05:37:12.756Z,19.37
2022-08-03T05:39:39.759Z,19.30
2022-08-03T05:42:07.239Z,19.07
2022-08-03T05:44:34.486Z,20.87
2022-08-03T05:47:01.386Z,19.03
2022-08-03T05:49:28.360Z,19.10
2022-08-03T05:51:59.980Z,18.27
2022-08-03T05:54:57.235Z,18.43
2022-08-03T05:57:24.875Z,19.57
2022-08-03T05:59:55.742Z,18.70
2022-08-03T06:02:27.598Z,19.17
2022-08-03T06:04:54.944Z,19.30
2022-08-03T06:07:21.885Z,17.37
2022-08-03T06:10:37.354Z,18.63
2022-08-03T06:12:36.382Z,18.53
2022-08-03T06:15:07.844Z,18.43
2022-08-03T06:17:48.731Z,18.40
2022-08-03T06:20:21.239Z,17.33
2022-08-03T06:23:00.519Z,19.03
2022-08-03T06:25:28.880Z,17.97
2022-08-03T06:27:55.923Z,18.30
2022-08-03T06:30:22.888Z,17.90
2022-08-03T06:32:51.953Z,17.07
2022-08-03T06:35:20.096Z,17.10
2022-08-03T06:37:49.845Z,17.33
2022-08-03T06:40:24.355Z,17.07
2022-08-03T06:42:51.426Z,18.37
2022-08-03T06:45:18.652Z,16.42
2022-08-03T06:47:45.684Z,16.70
2022-08-03T06:50:17.535Z,16.83
2022-08-03T06:52:46.856Z,17.17
2022-08-03T06:55:13.757Z,16.83
2022-08-03T06:57:40.669Z,16.33
2022-08-03T07:00:12.522Z,16.97
2022-08-03T07:02:40.183Z,16.07
2022-08-03T07:05:08.528Z,16.80
2022-08-03T07:07:36.095Z,17.00
2022-08-03T07:10:05.850Z,16.60
2022-08-03T07:12:33.833Z,17.17
2022-08-03T07:15:03.352Z,17.27
2022-08-03T07:17:32.879Z,15.20
2022-08-03T07:20:00.788Z,17.88
2022-08-03T07:22:28.511Z,17.17
2022-08-03T07:24:55.656Z,17.25
2022-08-03T07:27:22.756Z,18.23
2022-08-03T07:29:49.896Z,17.98
2022-08-03T07:32:17.073Z,17.60
2022-08-03T07:34:44.258Z,17.67
2022-08-03T07:37:11.522Z,16.52
2022-08-03T07:39:38.470Z,17.88
2022-08-03T07:42:06.021Z,15.63
2022-08-03T07:44:33.190Z,16.65
2022-08-03T07:47:00.122Z,15.65
2022-08-03T07:49:30.802Z,14.55
2022-08-03T07:52:17.461Z,13.85
2022-08-03T07:54:44.885Z,13.52
2022-08-03T07:57:12.075Z,12.52
2022-08-03T07:59:56.400Z,11.88
2022-08-03T08:02:24.640Z,12.40
2022-08-03T08:04:51.634Z,12.90
2022-08-03T08:07:19.034Z,11.07
2022-08-03T08:09:47.950Z,10.70
2022-08-03T08:12:15.567Z,12.43
2022-08-03T08:14:45.874Z,11.10
2022-08-03T08:17:13.928Z,12.13
2022-08-03T08:19:51.221Z,11.25
2022-08-03T08:22:20.367Z,9.95
2022-08-03T08:24:56.748Z,12.48
2022-08-03T08:27:24.143Z,13.05
2022-08-03T08:29:54.552Z,11.00
2022-08-03T08:32:23.682Z,11.63
2022-08-03T08:34:50.999Z,11.10
2022-08-03T08:37:18.040Z,12.82
2022-08-03T08:39:45.509Z,11.40
2022-08-03T08:42:12.693Z,11.70
2022-08-03T08:44:39.695Z,9.77
2022-08-03T08:47:09.276Z,10.18
2022-08-03T08:49:38.703Z,9.95
2022-08-03T08:52:29.545Z,9.38
2022-08-03T08:55:05.513Z,10.13
2022-08-03T08:57:45.413Z,9.90
2022-08-03T09:00:14.766Z,9.30
2022-08-03T09:02:45.723Z,10.85
2022-08-03T09:05:14.795Z,9.77
2022-08-03T09:07:43.431Z,9.98
2022-08-03T09:10:15.743Z,8.65
2022-08-03T09:12:44.974Z,7.43
2022-08-03T09:15:31.387Z,8.25
2022-08-03T09:18:01.122Z,8.45
2022-08-03T09:20:30.549Z,7.53
2022-08-03T09:23:59.685Z,8.23
2022-08-03T09:25:59.984Z,7.60
2022-08-03T09:29:01.237Z,7.80
2022-08-03T09:31:32.012Z,8.15
2022-08-03T09:34:04.936Z,7.25
2022-08-03T09:36:40.996Z,6.97
2022-08-03T09:39:12.242Z,7.95
2022-08-03T09:41:41.230Z,11.32
2022-08-03T09:44:08.721Z,8.18
2022-08-03T09:46:56.385Z,7.18
2022-08-03T09:49:24.540Z,6.10
2022-08-03T09:52:37.891Z,7.18
2022-08-03T09:54:39.400Z,5.85
2022-08-03T09:57:06.369Z,6.07
2022-08-03T09:59:34.354Z,6.57
2022-08-03T10:02:01.956Z,6.15
2022-08-03T10:04:29.103Z,8.15
2022-08-03T10:07:23.577Z,7.05
2022-08-03T10:10:28.863Z,6.60
2022-08-03T10:12:51.677Z,7.20
2022-08-03T10:16:22.081Z,7.05
2022-08-03T10:18:06.020Z,6.45
2022-08-03T10:20:52.425Z,7.05
2022-08-03T10:23:21.553Z,16.48
2022-08-03T10:25:52.829Z,6.28
2022-08-03T10:28:22.170Z,6.80
2022-08-03T10:30:51.383Z,6.95
2022-08-03T10:33:50.927Z,6.50
2022-08-03T10:36:17.019Z,5.53
2022-08-03T10:38:47.790Z,6.60
2022-08-03T10:41:17.558Z,6.60
2022-08-03T10:43:52.726Z,6.97
2022-08-03T10:46:20.966Z,6.07
2022-08-03T10:48:50.755Z,6.38
2022-08-03T10:51:19.170Z,5.57
2022-08-03T10:53:54.235Z,5.75
2022-08-03T10:56:54.331Z,4.97
2022-08-03T10:59:46.235Z,5.38
2022-08-03T11:02:14.826Z,5.38
2022-08-03T11:04:42.807Z,5.20
2022-08-03T11:07:23.746Z,5.25
2022-08-03T11:09:56.136Z,5.13
2022-08-03T11:12:30.713Z,4.95
2022-08-03T11:15:02.343Z,5.07
2022-08-03T11:17:29.570Z,5.05
2022-08-03T11:19:58.325Z,5.20
2022-08-03T11:22:46.142Z,5.15
2022-08-03T11:25:53.329Z,8.05
2022-08-03T11:28:28.428Z,5.38
2022-08-03T11:30:55.503Z,5.30
2022-08-03T11:33:32.206Z,5.63
2022-08-03T11:36:00.901Z,5.05
2022-08-03T11:38:28.093Z,5.63
2022-08-03T11:40:55.153Z,5.38
2022-08-03T11:43:31.783Z,5.63
2022-08-03T11:46:03.780Z,5.13
2022-08-03T11:48:45.660Z,5.72
2022-08-03T11:51:30.348Z,5.45
2022-08-03T11:53:59.875Z,5.40
2022-08-03T11:56:28.286Z,5.50
2022-08-03T11:59:20.354Z,5.82
2022-08-03T12:01:45.986Z,5.60
2022-08-03T12:04:13.108Z,5.47
2022-08-03T12:06:55.466Z,5.43
2022-08-03T12:09:22.855Z,4.63
2022-08-03T12:12:00.230Z,5.22
2022-08-03T12:14:50.625Z,5.10
2022-08-03T12:17:19.542Z,5.05
2022-08-03T12:19:47.137Z,4.97
2022-08-03T12:22:15.813Z,5.10
2022-08-03T12:24:43.953Z,4.85
2022-08-03T12:27:11.811Z,5.00
2022-08-03T12:29:38.926Z,5.63
2022-08-03T12:32:05.887Z,5.45
2022-08-03T12:34:47.622Z,5.00
2022-08-03T12:37:20.295Z,5.15
2022-08-03T12:40:02.744Z,4.95
2022-08-03T12:42:36.116Z,5.20
2022-08-03T12:45:23.688Z,5.35
2022-08-03T12:48:02.078Z,5.22
2022-08-03T12:50:34.737Z,5.13
2022-08-03T12:53:04.658Z,4.28
2022-08-03T12:55:40.166Z,4.53
2022-08-03T12:58:33.672Z,4.43
2022-08-03T13:01:04.816Z,4.38
2022-08-03T13:03:50.525Z,4.30
2022-08-03T13:06:26.721Z,4.68
2022-08-03T13:09:05.752Z,4.80
2022-08-03T13:11:55.611Z,4.90
2022-08-03T13:14:20.664Z,4.57
2022-08-03T13:16:49.199Z,4.30
2022-08-03T13:19:16.433Z,4.18
2022-08-03T13:22:01.817Z,4.57
2022-08-03T13:24:32.393Z,4.88
2022-08-03T13:27:00.493Z,5.13
2022-08-03T13:29:27.434Z,5.20
2022-08-03T13:31:54.639Z,5.15
2022-08-03T13:34:23.851Z,5.50
2022-08-03T13:37:09.609Z,5.13
2022-08-03T13:39:57.312Z,5.30
2022-08-03T13:42:24.604Z,5.43
2022-08-03T13:44:51.908Z,5.13
2022-08-03T13:47:20.148Z,6.03
2022-08-03T13:49:59.744Z,5.53
2022-08-03T13:52:34.520Z,5.45
2022-08-03T13:55:06.412Z,5.25
2022-08-03T13:58:06.347Z,4.90
2022-08-03T14:00:28.407Z,4.63
2022-08-03T14:03:03.907Z,4.72
2022-08-03T14:05:32.907Z,5.25
2022-08-03T14:08:05.733Z,5.18
2022-08-03T14:10:38.883Z,5.05
2022-08-03T14:13:06.624Z,5.00
2022-08-03T14:15:38.226Z,5.13
2022-08-03T14:18:15.818Z,4.93
2022-08-03T14:21:01.960Z,5.82
2022-08-03T14:23:32.777Z,6.45
2022-08-03T14:26:00.132Z,5.70
2022-08-03T14:28:27.103Z,4.85
2022-08-03T14:30:55.947Z,5.68
2022-08-03T14:33:24.106Z,5.50
2022-08-03T14:35:52.020Z,4.85
2022-08-03T14:38:19.258Z,5.53
2022-08-03T14:40:47.166Z,4.97
2022-08-03T14:43:14.565Z,4.82
2022-08-03T14:45:41.573Z,5.03
2022-08-03T14:50:29.395Z,5.05
2022-08-03T14:50:56.756Z,5.20
2022-08-03T14:53:24.310Z,5.13
2022-08-03T14:55:52.859Z,5.45
2022-08-03T14:58:22.109Z,5.07
2022-08-03T15:00:51.286Z,5.07
2022-08-03T15:03:25.739Z,5.63
2022-08-03T15:05:54.902Z,6.10
2022-08-03T15:08:23.073Z,5.57
2022-08-03T15:10:50.799Z,5.10
2022-08-03T15:13:19.507Z,5.28
2022-08-03T15:15:47.613Z,4.78
2022-08-03T15:18:15.186Z,5.28
2022-08-03T15:20:45.555Z,4.95
2022-08-03T15:23:15.360Z,5.07
2022-08-03T15:26:28.462Z,5.50
2022-08-03T15:28:31.142Z,5.32
2022-08-03T15:30:58.437Z,5.72
2022-08-03T15:33:25.341Z,5.63
2022-08-03T15:35:53.364Z,5.20
2022-08-03T15:38:25.925Z,5.80
2022-08-03T15:40:58.924Z,5.20
2022-08-03T15:43:25.998Z,6.25
2022-08-03T15:46:19.463Z,5.43
2022-08-03T15:48:43.185Z,5.68
2022-08-03T15:51:11.182Z,5.82
2022-08-03T15:53:38.501Z,5.38
2022-08-03T15:56:11.404Z,5.85
2022-08-03T15:59:03.802Z,5.72
2022-08-03T16:01:28.511Z,5.90
2022-08-03T16:03:55.497Z,5.68
2022-08-03T16:06:29.872Z,5.55
2022-08-03T16:09:23.728Z,6.53
2022-08-03T16:11:54.707Z,6.03
2022-08-03T16:14:34.485Z,5.28
2022-08-03T16:17:05.611Z,6.28
2022-08-03T16:19:32.832Z,5.80
2022-08-03T16:22:00.855Z,5.72
2022-08-03T16:24:28.347Z,6.55
2022-08-03T16:26:56.808Z,6.32
2022-08-03T16:29:24.146Z,6.15
2022-08-03T16:31:52.307Z,6.03
2022-08-03T16:34:20.033Z,6.35
2022-08-03T16:36:47.041Z,6.53
2022-08-03T16:39:14.035Z,6.57
2022-08-03T16:41:53.494Z,6.45
2022-08-03T16:44:29.769Z,6.00
2022-08-03T16:46:57.244Z,5.40
2022-08-03T16:49:55.582Z,6.13
2022-08-03T16:52:13.064Z,5.82
2022-08-03T16:54:40.729Z,5.95
2022-08-03T16:57:08.509Z,5.38
2022-08-03T16:59:36.847Z,5.50
2022-08-03T17:02:09.985Z,5.75
2022-08-03T17:04:40.009Z,5.97
2022-08-03T17:07:08.700Z,6.10
2022-08-03T17:09:38.420Z,5.60
2022-08-03T17:12:07.511Z,6.25
2022-08-03T17:14:38.461Z,6.05
2022-08-03T17:17:16.444Z,6.35
2022-08-03T17:19:47.407Z,6.97
2022-08-03T17:22:27.908Z,6.95
2022-08-03T17:24:58.216Z,6.25
2022-08-03T17:28:50.875Z,6.00
2022-08-03T17:30:18.968Z,6.22
2022-08-03T17:32:56.900Z,6.50
2022-08-03T17:35:36.629Z,5.57
2022-08-03T17:38:10.399Z,6.18
2022-08-03T17:40:40.078Z,5.13
2022-08-03T17:43:17.075Z,6.15
2022-08-03T17:46:07.145Z,5.80
2022-08-03T17:48:34.643Z,5.88
2022-08-03T17:51:30.764Z,5.72
2022-08-03T17:54:18.317Z,6.72
2022-08-03T17:56:58.145Z,7.13
2022-08-03T18:00:29.470Z,6.50
2022-08-03T18:03:28.147Z,7.28
2022-08-03T18:06:11.437Z,7.50
2022-08-03T18:08:50.837Z,6.75
2022-08-03T18:11:21.803Z,6.60
2022-08-03T18:14:16.269Z,7.10
2022-08-03T18:16:52.304Z,6.35
2022-08-03T18:19:20.976Z,6.40
2022-08-03T18:22:09.996Z,6.18
2022-08-03T18:24:38.082Z,6.45
2022-08-03T18:27:07.983Z,7.20
2022-08-03T18:29:37.100Z,6.45
2022-08-03T18:32:12.999Z,6.30
2022-08-03T18:34:53.074Z,7.65
2022-08-03T18:37:25.880Z,6.67
2022-08-03T18:39:57.921Z,7.22
2022-08-03T18:42:26.693Z,6.57
2022-08-03T18:44:55.815Z,6.75
2022-08-03T18:47:56.086Z,7.57
2022-08-03T18:50:46.442Z,8.80
2022-08-03T18:54:03.049Z,7.80
2022-08-03T18:56:34.213Z,8.40
2022-08-03T18:59:13.555Z,12.10
2022-08-03T19:02:00.250Z,9.87
2022-08-03T19:04:36.661Z,8.77
2022-08-03T19:07:08.015Z,9.77
2022-08-03T19:09:47.298Z,10.67
2022-08-03T19:12:31.012Z,10.07
2022-08-03T19:15:10.540Z,8.77
2022-08-03T19:17:50.212Z,8.00
2022-08-03T19:20:25.898Z,9.80
2022-08-03T19:22:54.710Z,8.80
2022-08-03T19:28:09.613Z,9.23
2022-08-03T19:30:39.877Z,41.17
2022-08-03T19:33:12.641Z,20.40
2022-08-03T19:35:49.722Z,13.33
2022-08-03T19:38:28.311Z,16.23
2022-08-03T19:41:00.859Z,18.13
2022-08-03T19:43:52.604Z,17.70
2022-08-03T19:46:27.714Z,16.27
2022-08-03T19:49:10.676Z,17.63
2022-08-03T19:51:58.598Z,25.00
2022-08-03T19:54:39.671Z,23.97
2022-08-03T19:57:24.105Z,24.17
2022-08-03T19:59:52.842Z,25.63
2022-08-03T20:02:26.563Z,23.50
2022-08-03T20:07:48.099Z,20.30
2022-08-03T20:10:17.633Z,17.30
2022-08-03T20:12:45.741Z,16.37
2022-08-03T20:15:13.145Z,16.83
2022-08-03T20:17:56.748Z,13.60
2022-08-03T20:20:34.726Z,12.73
2022-08-03T20:23:07.418Z,11.40
2022-08-03T20:25:57.038Z,10.97
2022-08-03T20:28:49.628Z,12.20
2022-08-03T20:31:32.124Z,12.87
2022-08-03T20:34:03.590Z,12.50
2022-08-03T20:36:30.501Z,12.77
2022-08-03T20:38:57.746Z,13.57
2022-08-03T20:41:25.609Z,12.90
2022-08-03T20:43:52.899Z,12.40
2022-08-03T20:46:32.035Z,12.40
2022-08-03T20:49:06.186Z,12.70
2022-08-03T20:51:49.584Z,12.73
2022-08-03T20:54:30.627Z,11.87
2022-08-03T20:57:00.582Z,13.27
2022-08-03T20:59:47.345Z,12.03
2022-08-03T21:02:29.687Z,13.20
2022-08-03T21:05:03.726Z,12.37
2022-08-03T21:08:05.715Z,12.23
2022-08-03T21:10:31.610Z,13.23
2022-08-03T21:13:08.247Z,22.43
2022-08-03T21:13:10.281Z,9.30
2022-08-03T21:13:19.104Z,13.10
2022-08-03T21:16:06.884Z,13.27
2022-08-03T21:19:02.634Z,14.67
2022-08-03T21:21:32.439Z,13.83
2022-08-03T21:24:03.479Z,14.67
2022-08-03T21:26:33.677Z,14.97
2022-08-03T21:29:02.426Z,15.87
2022-08-03T21:31:29.541Z,13.30
2022-08-03T21:34:05.311Z,15.53
2022-08-03T21:36:35.317Z,14.43
2022-08-03T21:39:06.292Z,14.83
2022-08-03T21:41:33.387Z,14.33
2022-08-03T21:44:01.723Z,15.37
2022-08-03T21:46:35.056Z,15.17
2022-08-03T21:50:05.893Z,16.13
2022-08-03T21:51:55.706Z,15.57
2022-08-03T21:54:27.070Z,16.27
2022-08-03T21:56:57.215Z,13.63
2022-08-03T21:59:26.056Z,14.33
2022-08-03T22:01:55.442Z,14.77
2022-08-03T22:04:53.191Z,14.07
2022-08-03T22:07:13.673Z,15.03
2022-08-03T22:09:51.331Z,15.40
2022-08-03T22:12:30.490Z,14.07
2022-08-03T22:15:01.811Z,14.67
2022-08-03T22:17:55.786Z,15.43
2022-08-03T22:20:22.665Z,14.63
2022-08-03T22:22:55.853Z,14.90
2022-08-03T22:25:35.909Z,15.40
2022-08-03T22:28:07.814Z,15.60
2022-08-03T22:30:35.929Z,15.57
2022-08-03T22:33:05.633Z,16.13
2022-08-03T22:35:44.116Z,15.13
2022-08-03T22:38:15.801Z,16.30
2022-08-03T22:40:43.690Z,15.83
2022-08-03T22:43:10.782Z,16.03
2022-08-03T22:46:07.737Z,15.40
2022-08-03T22:48:27.690Z,14.43
2022-08-03T22:50:56.123Z,15.30
2022-08-03T22:53:23.101Z,15.40
2022-08-03T22:55:51.616Z,14.70
2022-08-03T22:58:20.824Z,14.10
2022-08-03T23:00:53.776Z,13.70
2022-08-03T23:03:25.566Z,14.43
2022-08-03T23:06:14.245Z,13.63
2022-08-03T23:08:45.442Z,13.40
2022-08-03T23:11:15.605Z,12.93
2022-08-03T23:13:43.608Z,14.90
2022-08-03T23:16:10.813Z,13.93
2022-08-03T23:18:41.498Z,13.37
2022-08-03T23:21:11.248Z,13.47
2022-08-03T23:23:44.514Z,13.77
2022-08-03T23:26:13.481Z,14.50
2022-08-03T23:28:45.056Z,14.47
2022-08-03T23:31:14.597Z,14.67
2022-08-03T23:33:44.995Z,14.03
2022-08-03T23:36:30.834Z,13.30
2022-08-03T23:39:02.302Z,14.50
2022-08-03T23:41:30.775Z,14.17
2022-08-03T23:44:00.791Z,12.87
2022-08-03T23:46:30.419Z,12.40
2022-08-03T23:48:59.759Z,13.83
2022-08-03T23:51:42.039Z,13.20
2022-08-03T23:54:30.698Z,14.17
2022-08-03T23:57:03.679Z,12.27
2022-08-03T23:59:49.726Z,13.80
